Time;durP1;ratioP1;P1;durP2;ratioP2;P2;SDS_P1;SDS_P2;PMS_P1;PMS_P2;Temp;Humidity;BMP_temperature;BMP_pressure;BME280_temperature;BME280_humidity;BME280_pressure;Samples;Min_cycle;Max_cycle;Signal;HPM_P1;HPM_P2
2019/04/17 07:53:26;;;;;;;17;15.3;;;;;;;12.62;60.50098;965.0467;;;;
2019/04/17 07:56:58;;;;;;;21.4;19.2;;;;;;;12.78;59.62012;965.055;;;;
2019/04/17 08:00:23;;;;;;;21.6;19;;;;;;;12.82;58.56348;965.1423;;;;
2019/04/17 08:03:41;;;;;;;21.8;19.5;;;;;;;12.76;58.47266;965.1133;;;;
2019/04/17 08:06:51;;;;;;;20;17.9;;;;;;;12.89;58.69922;965.1234;;;;
2019/04/17 08:10:01;;;;;;;20.3;18.2;;;;;;;12.95;56.57715;965.1185;;;;
2019/04/17 08:13:12;;;;;;;21.8;19.5;;;;;;;12.89;57.17188;965.1627;;;;
2019/04/17 08:16:22;;;;;;;20.8;18;;;;;;;13.12;56.1123;965.0726;;;;
2019/04/17 08:19:33;;;;;;;19;17;;;;;;;13.56;56.27441;965.0553;;;;
2019/04/17 08:22:43;;;;;;;19.7;17.7;;;;;;;13.82;55.22949;965.1062;;;;
2019/04/17 08:25:53;;;;;;;20;18;;;;;;;13.78;54.32129;965.1136;;;;
2019/04/17 08:29:51;;;;;;;18.6;16.6;;;;;;;13.9;52.28125;965.0637;;;;
2019/04/17 08:31:36;;;;;;;21.4;17.9;;;;;;;13.98;53.78906;965.1478;;;;
2019/04/17 08:35:29;;;;;;;19.5;17.5;;;;;;;14.25;51.97656;965.1934;;;;
2019/04/17 08:38:46;;;;;;;17.9;16;;;;;;;14.66;51.09473;965.2383;;;;
2019/04/17 08:42:04;;;;;;;19;17.1;;;;;;;14.69;49.58984;965.2086;;;;
2019/04/17 08:45:28;;;;;;;19.3;17.3;;;;;;;14.79;50.42578;965.2647;;;;
2019/04/17 08:48:38;;;;;;;19.9;17.7;;;;;;;14.54;50.9082;965.2756;;;;
2019/04/17 08:51:48;;;;;;;19.1;17.2;;;;;;;14.59;53.67773;965.2842;;;;
2019/04/17 08:54:58;;;;;;;18.1;16.3;;;;;;;14.95;49.71094;965.3108;;;;
2019/04/17 08:58:08;;;;;;;18.8;16.9;;;;;;;14.75;49.21289;965.3348;;;;
2019/04/17 09:01:19;;;;;;;19.1;17.2;;;;;;;14.47;48.86621;965.3259;;;;
2019/04/17 09:04:29;;;;;;;19.1;17.2;;;;;;;14.48;49.55273;965.3336;;;;
2019/04/17 09:07:39;;;;;;;18.7;16.8;;;;;;;14.66;50.24805;965.3912;;;;
2019/04/17 09:10:49;;;;;;;18.9;17.1;;;;;;;14.59;49.68164;965.3672;;;;
2019/04/17 09:14:15;;;;;;;19.5;17.5;;;;;;;14.71;50.68262;965.3161;;;;
2019/04/17 09:18:47;;;;;;;19.3;17.4;;;;;;;14.78;49.64551;965.4238;;;;
2019/04/17 09:20:31;;;;;;;19.6;17.5;;;;;;;14.83;50.65137;965.3792;;;;
2019/04/17 09:27:11;;;;;;;19.6;17.6;;;;;;;15.07;49.30566;965.3605;;;;
2019/04/17 09:30:21;;;;;;;19.8;17.8;;;;;;;14.88;50.5293;965.3133;;;;
2019/04/17 09:33:31;;;;;;;18.5;16.7;;;;;;;15.15;49.89648;965.2744;;;;
2019/04/17 09:36:41;;;;;;;28.5;17.5;;;;;;;15.26;49.95508;965.2905;;;;
2019/04/17 09:39:51;;;;;;;25.8;17.3;;;;;;;15.1;50.46094;965.2089;;;;
2019/04/17 09:43:01;;;;;;;19.4;17.4;;;;;;;15.16;50.17773;965.2029;;;;
2019/04/17 09:46:11;;;;;;;20.1;17.2;;;;;;;15.3;49.12305;965.2111;;;;
2019/04/17 09:49:21;;;;;;;18.9;17;;;;;;;15.38;48.70117;965.235;;;;
2019/04/17 09:51:57;;;;;;;20.8;17.5;;;;;;;15.62;49.3457;965.1755;;;;
2019/04/17 09:54:41;;;;;;;18.7;16.7;;;;;;;15.64;47.48438;965.1959;;;;
2019/04/17 09:57:15;;;;;;;18.8;16.9;;;;;;;15.56;45.99707;965.2087;;;;
2019/04/17 09:59:41;;;;;;;19.1;17.1;;;;;;;15.49;48.56152;965.1972;;;;
2019/04/17 10:02:18;;;;;;;19;16.6;;;;;;;15.65;48.23047;965.1248;;;;
2019/04/17 10:11:40;;;;;;;18.1;16.4;;;;;;;15.92;47.39844;965.1987;;;;
2019/04/17 10:14:04;;;;;;;20.1;18;;;;;;;15.76;48.63965;965.2145;;;;
2019/04/17 10:16:35;;;;;;;20.6;18.5;;;;;;;15.69;49.49316;965.1688;;;;
2019/04/17 10:19:08;;;;;;;19.9;17.4;;;;;;;15.87;47.16016;965.1949;;;;
2019/04/17 10:21:43;;;;;;;20;17.9;;;;;;;15.98;46.21582;965.1013;;;;
2019/04/17 10:24:08;;;;;;;19.6;17;;;;;;;16.05;47.66992;965.0803;;;;
2019/04/17 10:28:02;;;;;;;19.2;17.4;;;;;;;16.24;45.94043;965.0394;;;;
2019/04/17 10:29:10;;;;;;;18.2;16.4;;;;;;;16.5;45.53613;965.1091;;;;
2019/04/17 10:31:46;;;;;;;19;17.1;;;;;;;16.68;45.00586;965.0433;;;;
2019/04/17 10:34:11;;;;;;;19.9;17.5;;;;;;;16.88;43.81152;965.0931;;;;
2019/04/17 10:36:46;;;;;;;18.3;16.4;;;;;;;16.9;43.65039;964.9941;;;;
2019/04/17 10:44:14;;;;;;;19.1;17.1;;;;;;;17.31;41.12012;965.0997;;;;
2019/04/17 10:46:43;;;;;;;18.2;16.3;;;;;;;17.74;42.26074;965.0278;;;;
2019/04/17 10:49:12;;;;;;;18.1;16.2;;;;;;;18.18;40.05371;965.024;;;;
2019/04/17 10:51:52;;;;;;;18;16.1;;;;;;;18.49;37.74902;964.9947;;;;
2019/04/17 10:54:58;;;;;;;20;17.2;;;;;;;19.06;37.10547;964.9497;;;;
2019/04/17 10:59:48;;;;;;;20.7;15.8;;;;;;;21.89;32.77344;964.9877;;;;
2019/04/17 11:02:25;;;;;;;18;16.1;;;;;;;22.98;29.68164;964.9922;;;;
2019/04/17 11:04:52;;;;;;;16.2;14.5;;;;;;;23.86;31.05664;964.9524;;;;
2019/04/17 11:07:41;;;;;;;17.7;16;;;;;;;23.73;28.21289;964.9739;;;;
2019/04/17 11:10:05;;;;;;;17.2;14.8;;;;;;;24.37;25.07129;964.8434;;;;
2019/04/17 11:12:34;;;;;;;19.4;15.2;;;;;;;24.83;24.93066;964.9464;;;;
2019/04/17 11:17:34;;;;;;;20.8;15.5;;;;;;;25.39;23.24707;964.8557;;;;
2019/04/17 11:19:57;;;;;;;21.2;15.6;;;;;;;25.01;25.89258;964.8542;;;;
2019/04/17 11:23:44;;;;;;;18.1;15.2;;;;;;;25.16;25.54297;964.8701;;;;
2019/04/17 11:24:57;;;;;;;19.8;14.8;;;;;;;25.38;22.77051;964.7859;;;;
2019/04/17 11:27:19;;;;;;;16.4;14.1;;;;;;;25.74;21.19238;964.7712;;;;
2019/04/17 11:29:55;;;;;;;20;14.6;;;;;;;26.17;21.40332;964.7999;;;;
2019/04/17 11:32:39;;;;;;;17.2;14.6;;;;;;;27.03;19.5332;964.795;;;;
2019/04/17 11:35:01;;;;;;;16.5;14;;;;;;;27.18;21.15332;964.7726;;;;
2019/04/17 11:37:22;;;;;;;20.2;14.7;;;;;;;27.05;19.43848;964.8278;;;;
2019/04/17 11:39:48;;;;;;;16.5;14.7;;;;;;;27.4;18.16211;964.7453;;;;
2019/04/17 11:42:18;;;;;;;18.2;13.9;;;;;;;26.68;20.86719;964.7219;;;;
2019/04/17 11:44:38;;;;;;;15.7;13.7;;;;;;;27.07;20.1084;964.6956;;;;
2019/04/17 11:47:07;;;;;;;17.8;13.6;;;;;;;28.17;18.75684;964.6384;;;;
2019/04/17 11:49:43;;;;;;;15.2;13.4;;;;;;;27.93;18.45898;964.6848;;;;
2019/04/17 11:52:14;;;;;;;15.6;13.2;;;;;;;27.46;19.44434;964.6691;;;;
2019/04/17 11:54:40;;;;;;;17.8;14.1;;;;;;;27.7;18.95215;964.652;;;;
2019/04/17 11:57:06;;;;;;;16.3;14.3;;;;;;;27.81;18.69336;964.6806;;;;
2019/04/17 11:59:49;;;;;;;16;14.4;;;;;;;27.89;19.10352;964.6721;;;;
2019/04/17 12:05:46;;;;;;;18.2;14.3;;;;;;;29.33;18.76855;964.6309;;;;
2019/04/17 12:08:34;;;;;;;15.4;12.8;;;;;;;29.62;15.99316;964.6701;;;;
2019/04/17 12:13:42;;;;;;;16.8;13.5;;;;;;;29.12;16.8877;964.6954;;;;
2019/04/17 12:16:30;;;;;;;19;12.8;;;;;;;29.2;16.50586;964.6514;;;;
2019/04/17 12:18:25;;;;;;;18.5;13.5;;;;;;;29.9;15.9668;964.559;;;;
2019/04/17 12:21:15;;;;;;;18.9;14.1;;;;;;;29.29;16.48535;964.6275;;;;
2019/04/17 12:24:37;;;;;;;18.1;13.8;;;;;;;29.85;16.16992;964.6522;;;;
2019/04/17 12:26:03;;;;;;;14.9;12.7;;;;;;;29.63;16.67773;964.6337;;;;
2019/04/17 12:28:49;;;;;;;17;13.8;;;;;;;29.62;15.8252;964.6432;;;;
2019/04/17 12:30:54;;;;;;;15.7;13.7;;;;;;;28.4;16.56152;964.6436;;;;
2019/04/17 12:33:19;;;;;;;14.7;13.1;;;;;;;28.56;16.47168;964.5748;;;;
2019/04/17 12:35:47;;;;;;;13.3;11.2;;;;;;;28.16;15.36621;964.5831;;;;
2019/04/17 12:41:15;;;;;;;15.6;12.3;;;;;;;28.17;18.60059;964.4827;;;;
2019/04/17 12:43:41;;;;;;;16.5;12;;;;;;;28.52;17.8125;964.4828;;;;
2019/04/17 12:46:26;;;;;;;12.9;10.4;;;;;;;28.74;14.89453;964.4672;;;;
2019/04/17 12:48:59;;;;;;;13;10.8;;;;;;;27.76;15.54395;964.481;;;;
2019/04/17 12:52:19;;;;;;;13.9;11.8;;;;;;;27.94;17.07129;964.3784;;;;
2019/04/17 12:54:11;;;;;;;15.7;12;;;;;;;27.51;18.15527;964.4692;;;;
2019/04/17 12:56:43;;;;;;;14.2;11.4;;;;;;;28.21;14.87695;964.3148;;;;
2019/04/17 12:59:00;;;;;;;13.7;11.1;;;;;;;28.8;17.5957;964.4267;;;;
2019/04/17 13:04:40;;;;;;;13.7;10.6;;;;;;;28.46;15.84375;964.291;;;;
2019/04/17 13:06:57;;;;;;;12.8;9.9;;;;;;;28.9;19.36328;964.3699;;;;
2019/04/17 13:09:54;;;;;;;11.6;9.8;;;;;;;28.57;14.40918;964.3859;;;;
2019/04/17 13:13:22;;;;;;;12.9;10.6;;;;;;;28.55;14.19336;964.3223;;;;
2019/04/17 13:14:44;;;;;;;13.9;11.5;;;;;;;27.69;17.15723;964.3449;;;;
2019/04/17 13:17:07;;;;;;;15.5;11.4;;;;;;;26.58;17.30566;964.3339;;;;
2019/04/17 13:19:41;;;;;;;12.6;10.7;;;;;;;26.59;19.33496;964.2701;;;;
2019/04/17 13:22:22;;;;;;;12.9;9.8;;;;;;;26.45;17.72949;964.2869;;;;
2019/04/17 13:24:59;;;;;;;11.6;9.5;;;;;;;26.07;16.61816;964.1619;;;;
2019/04/17 13:27:24;;;;;;;10.4;9.2;;;;;;;26.82;17.35059;964.2054;;;;
2019/04/17 13:29:58;;;;;;;11.8;9.3;;;;;;;26.57;16.63672;964.1757;;;;
2019/04/17 13:32:33;;;;;;;10.5;8.7;;;;;;;26.33;16.52051;964.1431;;;;
2019/04/17 13:35:07;;;;;;;11.2;8.7;;;;;;;26.59;15.6709;964.1765;;;;
2019/04/17 13:37:40;;;;;;;10.7;8.8;;;;;;;26.91;15.2041;964.1169;;;;
2019/04/17 13:40:24;;;;;;;9.7;8.6;;;;;;;27.3;15.80371;964.0767;;;;
2019/04/17 13:43:31;;;;;;;9.5;8.3;;;;;;;27.2;14.99902;964.0607;;;;
2019/04/17 13:45:42;;;;;;;9.6;7.4;;;;;;;27.2;14.07813;964.1679;;;;
2019/04/17 13:48:04;;;;;;;9.8;7.3;;;;;;;27.17;15.57129;964.123;;;;
2019/04/17 13:50:28;;;;;;;8.2;6.7;;;;;;;26.85;14.85547;964.1166;;;;
2019/04/17 13:53:19;;;;;;;9.8;7.1;;;;;;;25.96;15.01758;964.0314;;;;
2019/04/17 13:55:29;;;;;;;7.7;6.9;;;;;;;26.23;16.31445;964.0236;;;;
2019/04/17 13:57:50;;;;;;;9.3;6.6;;;;;;;26.26;15.96973;964.0685;;;;
2019/04/17 14:00:30;;;;;;;8.8;7.4;;;;;;;25.58;16.16016;964.0314;;;;
2019/04/17 14:02:59;;;;;;;8;7.1;;;;;;;24.67;15.24805;964.0025;;;;
2019/04/17 14:05:37;;;;;;;7.3;6.6;;;;;;;24.49;16.17969;964.0227;;;;
2019/04/17 14:08:27;;;;;;;8.5;6.6;;;;;;;24.15;17.31836;963.9672;;;;
2019/04/17 14:10:42;;;;;;;8.4;7;;;;;;;23.94;16.66992;963.9297;;;;
2019/04/17 14:13:18;;;;;;;8.2;7.1;;;;;;;24.32;19.74805;964.0025;;;;
2019/04/17 14:15:35;;;;;;;9.9;7.4;;;;;;;24.69;17.01953;963.9286;;;;
2019/04/17 14:18:13;;;;;;;9.3;7.1;;;;;;;24.27;18.49902;963.9289;;;;
2019/04/17 14:20:50;;;;;;;8;6.9;;;;;;;24.58;18.2627;963.9486;;;;
2019/04/17 14:23:11;;;;;;;11.2;7.1;;;;;;;24.43;16.73535;963.9338;;;;
2019/04/17 14:32:58;;;;;;;7.5;5.7;;;;;;;23.45;16.2959;963.8925;;;;
2019/04/17 14:35:23;;;;;;;6.4;4.9;;;;;;;23.64;16.01855;963.8723;;;;
2019/04/17 14:37:54;;;;;;;6.7;5.1;;;;;;;23.63;16.55078;963.8691;;;;
2019/04/17 14:40:22;;;;;;;6;4.6;;;;;;;23.52;15.59863;963.7996;;;;
2019/04/17 14:42:51;;;;;;;7.7;4.7;;;;;;;22.79;15.71582;963.9126;;;;
2019/04/17 14:45:28;;;;;;;5.8;4.9;;;;;;;21.54;16.85156;963.8239;;;;
2019/04/17 14:49:03;;;;;;;6.9;5.4;;;;;;;21.11;17.51953;963.8105;;;;
2019/04/17 14:50:33;;;;;;;6.4;5;;;;;;;21.08;19.08594;963.8234;;;;
2019/04/17 14:53:17;;;;;;;7;5;;;;;;;20.91;17.4873;963.7914;;;;
2019/04/17 14:55:47;;;;;;;7.9;5.8;;;;;;;20.49;18.29492;963.8069;;;;
2019/04/17 14:58:03;;;;;;;8;6.6;;;;;;;20.54;19.2627;963.7881;;;;
2019/04/17 15:01:09;;;;;;;7.9;6.4;;;;;;;20.25;19.12109;963.7519;;;;
2019/04/17 15:08:08;;;;;;;10.7;7.5;;;;;;;19.43;19.88379;963.765;;;;
2019/04/17 15:13:00;;;;;;;7.1;6.4;;;;;;;19.72;19.95605;963.775;;;;
2019/04/17 15:15:24;;;;;;;8.6;6.2;;;;;;;19.43;18.87402;963.8047;;;;
2019/04/17 15:17:45;;;;;;;8.5;6.8;;;;;;;18.9;19.84863;963.8738;;;;
2019/04/17 15:20:13;;;;;;;8.9;7.9;;;;;;;18.83;21.3457;963.8918;;;;
2019/04/17 15:22:41;;;;;;;11.8;8.2;;;;;;;18.83;21.42871;963.9041;;;;
2019/04/17 15:25:10;;;;;;;11;8;;;;;;;18.85;21.22949;963.8711;;;;
2019/04/17 15:27:52;;;;;;;10;8.5;;;;;;;18.89;23.8125;963.8758;;;;
2019/04/17 15:30:18;;;;;;;10.5;8.5;;;;;;;18.94;22.98242;963.8086;;;;
2019/04/17 15:32:49;;;;;;;11.7;8.5;;;;;;;19.04;22.94043;963.8276;;;;
2019/04/17 15:35:20;;;;;;;10.5;8.6;;;;;;;19.06;22.01465;963.8259;;;;
2019/04/17 15:37:47;;;;;;;11.6;9.4;;;;;;;18.86;23.08398;963.9189;;;;
2019/04/17 15:40:17;;;;;;;13.3;9.6;;;;;;;18.78;23.63086;963.8787;;;;
2019/04/17 15:42:51;;;;;;;10.3;8.7;;;;;;;18.86;23.37695;963.9098;;;;
2019/04/17 15:45:28;;;;;;;10.9;8.5;;;;;;;18.7;22.21875;963.875;;;;
2019/04/17 15:48:05;;;;;;;12.8;8.7;;;;;;;18.44;22.82715;963.878;;;;
2019/04/17 15:50:31;;;;;;;9.5;7.2;;;;;;;18.54;21.98828;963.9196;;;;
2019/04/17 15:53:05;;;;;;;11.3;7.1;;;;;;;18.55;22.58691;963.9494;;;;
2019/04/17 15:55:30;;;;;;;10.4;7.7;;;;;;;18.58;23.39746;963.9632;;;;
2019/04/17 15:58:03;;;;;;;10.5;7.9;;;;;;;18.43;22.14746;963.9317;;;;
2019/04/17 16:00:51;;;;;;;9.3;7.6;;;;;;;18.27;22.29102;963.915;;;;
2019/04/17 16:03:08;;;;;;;9.3;7.3;;;;;;;18.25;22.72363;963.921;;;;
2019/04/17 16:05:33;;;;;;;10.4;7.9;;;;;;;18.39;23.21094;963.95;;;;
2019/04/17 16:07:59;;;;;;;10.3;8.7;;;;;;;18.24;22.96973;963.957;;;;
2019/04/17 16:10:42;;;;;;;12.7;8.5;;;;;;;18.2;22.69727;963.9664;;;;
2019/04/17 16:13:09;;;;;;;10.3;8.5;;;;;;;18.11;22.66992;963.9584;;;;
2019/04/17 16:15:38;;;;;;;10.4;7.7;;;;;;;18.24;23.26172;963.9398;;;;
2019/04/17 16:18:17;;;;;;;12.2;8.5;;;;;;;18.2;22.73242;963.9664;;;;
2019/04/17 16:23:06;;;;;;;12;8.3;;;;;;;18.01;22.33691;963.9788;;;;
2019/04/17 16:25:34;;;;;;;12.2;8.8;;;;;;;17.86;22.98438;963.9906;;;;
2019/04/17 16:28:06;;;;;;;12.1;8.6;;;;;;;17.8;22.87695;963.9183;;;;
2019/04/17 16:30:46;;;;;;;11.7;8.5;;;;;;;17.76;22.81543;963.9614;;;;
2019/04/17 16:33:13;;;;;;;8.9;7.9;;;;;;;17.81;23.8125;963.9519;;;;
2019/04/17 16:35:44;;;;;;;11.5;8.1;;;;;;;17.75;22.41699;964.0028;;;;
2019/04/17 16:40:38;;;;;;;11;8.3;;;;;;;17.73;22.20508;963.9475;;;;
2019/04/17 16:45:44;;;;;;;10.3;7.8;;;;;;;17.66;22.6582;963.9461;;;;
2019/04/17 16:48:57;;;;;;;9.5;7.5;;;;;;;17.52;22.42871;963.9478;;;;
2019/04/17 16:50:35;;;;;;;10.9;7.7;;;;;;;17.43;22.75195;963.9669;;;;
2019/04/17 16:54:06;;;;;;;9.9;7.4;;;;;;;17.18;22.31836;963.9628;;;;
2019/04/17 16:56:38;;;;;;;9.4;7.8;;;;;;;17.25;23.1748;963.9817;;;;
2019/04/17 16:59:05;;;;;;;10.7;8.3;;;;;;;17.32;23.08496;963.9965;;;;
2019/04/17 17:01:30;;;;;;;9.5;8.1;;;;;;;17.2;22.77539;963.9959;;;;
2019/04/17 17:03:55;;;;;;;10.8;8;;;;;;;17.14;23.37988;963.9934;;;;
2019/04/17 17:06:21;;;;;;;10.6;8.5;;;;;;;17.11;23.36621;963.9308;;;;
2019/04/17 17:08:52;;;;;;;10.4;8.3;;;;;;;17.17;23.39258;963.9644;;;;
2019/04/17 17:11:17;;;;;;;13.6;8.8;;;;;;;17.05;23.70117;963.9856;;;;
2019/04/17 17:13:44;;;;;;;12.2;8.4;;;;;;;16.99;24.06055;963.9875;;;;
2019/04/17 17:16:10;;;;;;;10.6;8.7;;;;;;;16.84;23.76074;964.0258;;;;
2019/04/17 17:18:35;;;;;;;13.4;8.9;;;;;;;16.86;23.79688;964.0711;;;;
2019/04/17 17:21:05;;;;;;;10.6;8.3;;;;;;;16.93;23.71875;964.0687;;;;
2019/04/17 17:23:52;;;;;;;10.4;7.9;;;;;;;16.97;23.73242;964.0953;;;;
2019/04/17 17:26:23;;;;;;;10.5;8.3;;;;;;;16.84;23.24609;964.1174;;;;
2019/04/17 17:29:04;;;;;;;12;8.1;;;;;;;16.73;23.78906;964.2172;;;;
2019/04/17 17:32:15;;;;;;;11;8.3;;;;;;;16.63;23.85449;964.2096;;;;
2019/04/17 17:36:46;;;;;;;9.7;8;;;;;;;16.61;24.47168;964.2202;;;;
2019/04/17 17:39:25;;;;;;;9.5;7.6;;;;;;;16.46;24.49805;964.2797;;;;
2019/04/17 17:41:56;;;;;;;12.8;8.2;;;;;;;16.42;23.91309;964.2928;;;;
2019/04/17 17:44:13;;;;;;;11.7;8.5;;;;;;;16.43;24.28613;964.3972;;;;
2019/04/17 17:46:41;;;;;;;13.3;8.8;;;;;;;16.28;24.9541;964.2988;;;;
2019/04/17 17:49:41;;;;;;;9.8;8;;;;;;;16.24;25.18555;964.3287;;;;
2019/04/17 17:54:18;;;;;;;10.4;7.9;;;;;;;16.17;25.19238;964.3886;;;;
2019/04/17 17:57:05;;;;;;;11.5;7.8;;;;;;;16.15;25.78711;964.3599;;;;
2019/04/17 17:59:25;;;;;;;11.5;7.8;;;;;;;16.12;26.29688;964.4821;;;;
2019/04/17 18:04:24;;;;;;;10.3;7.9;;;;;;;15.98;26.51074;964.3992;;;;
2019/04/17 18:06:58;;;;;;;10.8;8.3;;;;;;;15.98;26.26563;964.474;;;;
2019/04/17 18:09:28;;;;;;;11.2;7.8;;;;;;;15.76;26.72949;964.4872;;;;
2019/04/17 18:13:38;;;;;;;11.8;8.3;;;;;;;15.78;26.94141;964.4981;;;;
2019/04/17 18:14:16;;;;;;;14.5;8.8;;;;;;;15.7;28.77539;964.4802;;;;
2019/04/17 18:16:43;;;;;;;14.2;9.6;;;;;;;15.65;27.03809;964.4938;;;;
2019/04/17 18:19:11;;;;;;;13.4;9;;;;;;;15.61;26.87207;964.5286;;;;
2019/04/17 18:28:18;;;;;;;11.3;9.1;;;;;;;15.33;26.7041;964.6044;;;;
2019/04/17 18:31:07;;;;;;;11.1;8.1;;;;;;;15.24;28.52441;964.6439;;;;
2019/04/17 18:33:17;;;;;;;11.3;8.2;;;;;;;15.28;27.30566;964.613;;;;
2019/04/17 18:35:57;;;;;;;9.5;7.5;;;;;;;15.21;26.90625;964.7208;;;;
2019/04/17 18:38:35;;;;;;;12.6;8;;;;;;;15.1;26.91016;964.7015;;;;
2019/04/17 18:40:58;;;;;;;11;8.1;;;;;;;15;27.95117;964.6973;;;;
2019/04/17 18:46:08;;;;;;;12.3;7.5;;;;;;;14.89;27.45605;964.8094;;;;
2019/04/17 18:48:29;;;;;;;11.6;7.6;;;;;;;14.77;28.12207;964.8376;;;;
2019/04/17 18:50:46;;;;;;;12.9;7.8;;;;;;;14.75;27.41211;964.884;;;;
2019/04/17 18:53:11;;;;;;;14.3;7.8;;;;;;;14.74;27.40039;964.8496;;;;
2019/04/17 18:55:43;;;;;;;12.3;7.8;;;;;;;14.65;28.0332;964.9109;;;;
2019/04/17 18:58:23;;;;;;;9.7;7.5;;;;;;;14.63;27.76465;964.8731;;;;
2019/04/17 19:00:55;;;;;;;9.9;7.7;;;;;;;14.53;28.9082;964.9349;;;;
2019/04/17 19:03:23;;;;;;;9.6;7.2;;;;;;;14.49;27.52344;964.9604;;;;
2019/04/17 19:05:48;;;;;;;10.4;6.9;;;;;;;14.43;28.53027;964.9228;;;;
2019/04/17 19:08:19;;;;;;;10.5;7.1;;;;;;;14.43;28.1582;964.9359;;;;
2019/04/17 19:10:48;;;;;;;9.9;6.9;;;;;;;14.36;28.25879;964.9119;;;;
2019/04/17 19:13:16;;;;;;;8.6;7;;;;;;;14.35;29.33789;964.9995;;;;
2019/04/17 19:15:41;;;;;;;10.1;6.8;;;;;;;14.36;28.25879;965.0081;;;;
2019/04/17 19:18:24;;;;;;;9.4;6.9;;;;;;;14.28;27.64941;965.0242;;;;
2019/04/17 19:20:49;;;;;;;10.3;7.2;;;;;;;14.18;28.13086;965.025;;;;
2019/04/17 19:23:24;;;;;;;9.5;6.7;;;;;;;14.1;28.19531;965.0192;;;;
2019/04/17 19:26:01;;;;;;;9.1;6.7;;;;;;;14.02;28.49121;965.0442;;;;
2019/04/17 19:28:27;;;;;;;9.7;7;;;;;;;13.93;28.63672;965.1658;;;;
2019/04/17 19:30:56;;;;;;;10.9;6.7;;;;;;;13.94;28.37109;965.1473;;;;
2019/04/17 19:33:42;;;;;;;9.5;6.3;;;;;;;13.96;28.80078;965.1105;;;;
2019/04/17 19:36:04;;;;;;;9.3;6.5;;;;;;;13.95;29.66992;965.1465;;;;
2019/04/17 19:39:06;;;;;;;9.7;6.7;;;;;;;13.88;28.93457;965.1969;;;;
2019/04/17 19:45:45;;;;;;;8.2;6.3;;;;;;;13.82;29.29004;965.202;;;;
2019/04/17 19:47:30;;;;;;;8.4;6.1;;;;;;;13.72;30.59277;965.2289;;;;
2019/04/17 19:50:00;;;;;;;9;6.4;;;;;;;13.77;29.15918;965.2068;;;;
2019/04/17 19:52:09;;;;;;;10.2;6.9;;;;;;;13.71;31.04492;965.2125;;;;
2019/04/17 19:54:26;;;;;;;11.5;6.5;;;;;;;13.59;29.40234;965.236;;;;
2019/04/17 19:56:59;;;;;;;11;7;;;;;;;13.48;30.24023;965.2717;;;;
2019/04/17 19:59:24;;;;;;;10.1;6.6;;;;;;;13.44;29.93652;965.3022;;;;
2019/04/17 20:01:49;;;;;;;10.1;6.4;;;;;;;13.46;30.41309;965.2523;;;;
2019/04/17 20:04:15;;;;;;;9.1;6.4;;;;;;;13.38;30.83594;965.2381;;;;
2019/04/17 20:06:42;;;;;;;11.5;7.1;;;;;;;13.38;31.64746;965.2505;;;;
2019/04/17 20:09:27;;;;;;;13.1;7.8;;;;;;;13.33;30.99512;965.3158;;;;
2019/04/17 20:11:57;;;;;;;9.4;6.9;;;;;;;13.3;30.7959;965.2932;;;;
2019/04/17 20:14:37;;;;;;;10;7.2;;;;;;;13.22;31.26465;965.3473;;;;
2019/04/17 20:17:03;;;;;;;11.7;7.9;;;;;;;13.2;31.76172;965.4058;;;;
2019/04/17 20:19:28;;;;;;;10.9;7.4;;;;;;;13.06;31.7627;965.3875;;;;
2019/04/17 20:22:02;;;;;;;12.2;7.4;;;;;;;13.08;31.52051;965.3953;;;;
2019/04/17 20:24:36;;;;;;;10.5;6.9;;;;;;;13.03;31.61035;965.4343;;;;
2019/04/17 20:27:17;;;;;;;12;7;;;;;;;12.99;32.09277;965.4247;;;;
2019/04/17 20:29:49;;;;;;;11.8;7.4;;;;;;;13;31.62012;965.4191;;;;
2019/04/17 20:32:31;;;;;;;9.1;7.2;;;;;;;12.92;32.88672;965.4219;;;;
2019/04/17 20:34:47;;;;;;;12.4;7.7;;;;;;;12.88;31.47168;965.3513;;;;
2019/04/17 20:37:35;;;;;;;10.5;7.2;;;;;;;12.83;32.58984;965.3951;;;;
2019/04/17 20:40:16;;;;;;;11.4;7.2;;;;;;;12.84;32.60254;965.4291;;;;
2019/04/17 20:43:03;;;;;;;11.2;7.1;;;;;;;12.81;32.16016;965.4539;;;;
2019/04/17 20:45:39;;;;;;;9.5;7.2;;;;;;;12.74;31.92383;965.3329;;;;
2019/04/17 20:48:25;;;;;;;10.6;7.3;;;;;;;12.79;32.5293;965.3855;;;;
2019/04/17 20:51:02;;;;;;;10.5;7.5;;;;;;;12.69;33.30859;965.4286;;;;
2019/04/17 20:53:49;;;;;;;9.3;7.1;;;;;;;12.65;33.90723;965.4059;;;;
2019/04/17 20:56:29;;;;;;;11.5;7.2;;;;;;;12.63;32.72656;965.3858;;;;
2019/04/17 21:01:45;;;;;;;11.3;7.1;;;;;;;12.61;33.11719;965.3663;;;;
2019/04/17 21:04:25;;;;;;;11.6;7.7;;;;;;;12.54;34.1875;965.3847;;;;
2019/04/17 21:07:00;;;;;;;12.7;7.6;;;;;;;12.47;33.52246;965.365;;;;
2019/04/17 21:09:40;;;;;;;12.2;7.7;;;;;;;12.49;34.20605;965.4285;;;;
2019/04/17 21:12:05;;;;;;;11.1;7.5;;;;;;;12.47;34.22754;965.4303;;;;
2019/04/17 21:14:53;;;;;;;11.8;8;;;;;;;12.33;36.30859;965.4162;;;;
2019/04/17 21:17:23;;;;;;;12.2;8;;;;;;;12.21;34.35742;965.4741;;;;
2019/04/17 21:19:56;;;;;;;15.5;8.6;;;;;;;12.18;33.29199;965.5117;;;;
2019/04/17 21:22:35;;;;;;;13;8.8;;;;;;;12.08;33.63184;965.4456;;;;
2019/04/17 21:25:06;;;;;;;11.8;8.4;;;;;;;12.16;34.52637;965.4916;;;;
2019/04/17 21:27:37;;;;;;;13.6;9;;;;;;;11.95;35.52734;965.4869;;;;
2019/04/17 21:30:08;;;;;;;14.4;8.9;;;;;;;11.99;35.44922;965.4794;;;;
2019/04/17 21:32:47;;;;;;;15.3;9.3;;;;;;;12.02;35.40527;965.4425;;;;
2019/04/17 21:37:53;;;;;;;12.5;8.8;;;;;;;11.94;36.18359;965.4966;;;;
2019/04/17 21:40:18;;;;;;;13.1;8.7;;;;;;;11.98;35.35547;965.5111;;;;
2019/04/17 21:42:43;;;;;;;12.9;8.6;;;;;;;11.94;36.56445;965.5055;;;;
2019/04/17 21:45:09;;;;;;;12.7;8.9;;;;;;;11.95;36.78516;965.5219;;;;
2019/04/17 21:47:39;;;;;;;13.5;8.9;;;;;;;11.9;36.49219;965.4913;;;;
2019/04/17 21:50:04;;;;;;;11.9;9.6;;;;;;;11.82;37.14258;965.45;;;;
2019/04/17 21:52:29;;;;;;;15.7;9.7;;;;;;;11.82;36.61133;965.5112;;;;
2019/04/17 21:55:05;;;;;;;12.6;9.6;;;;;;;11.74;36.7207;965.4913;;;;
2019/04/17 21:57:30;;;;;;;12.9;9.3;;;;;;;11.67;37.45313;965.462;;;;
2019/04/17 21:59:55;;;;;;;15.2;9.3;;;;;;;11.76;36.37598;965.4681;;;;
2019/04/17 22:02:42;;;;;;;13.2;10;;;;;;;11.63;36.96582;965.478;;;;
2019/04/17 22:05:16;;;;;;;13.4;9.9;;;;;;;11.6;37.50488;965.5115;;;;
2019/04/17 22:08:02;;;;;;;12.6;9.5;;;;;;;11.54;37.24609;965.5075;;;;
2019/04/17 22:10:28;;;;;;;14.2;10.1;;;;;;;11.53;37.26855;965.4347;;;;
2019/04/17 22:13:13;;;;;;;13.5;9.6;;;;;;;11.45;38.70313;965.4367;;;;
2019/04/17 22:15:38;;;;;;;15;9.6;;;;;;;11.53;38.08691;965.5083;;;;
2019/04/17 22:18:08;;;;;;;15.9;10;;;;;;;11.33;38.66895;965.5031;;;;
2019/04/17 22:20:34;;;;;;;12.9;9.8;;;;;;;11.23;39.62891;965.4631;;;;
2019/04/17 22:22:59;;;;;;;14.9;9.4;;;;;;;11.25;39.49316;965.4874;;;;
2019/04/17 22:25:29;;;;;;;12.6;8.7;;;;;;;11.19;41.09961;965.5144;;;;
2019/04/17 22:33:39;;;;;;;11.2;9.1;;;;;;;11.26;42.16699;965.4916;;;;
2019/04/17 22:35:27;;;;;;;13.1;8.8;;;;;;;11.08;42.93359;965.562;;;;
2019/04/17 22:37:56;;;;;;;9.8;8;;;;;;;11.13;43.00781;965.5756;;;;
2019/04/17 22:40:26;;;;;;;11.8;8.9;;;;;;;11.03;43.41211;965.549;;;;
2019/04/17 22:45:19;;;;;;;11.4;8.3;;;;;;;11.03;43.72266;965.5963;;;;
2019/04/17 22:47:44;;;;;;;11.3;7.8;;;;;;;11.05;43.01074;965.5692;;;;
2019/04/17 22:50:18;;;;;;;12.4;8.6;;;;;;;10.94;44.2334;965.5728;;;;
2019/04/17 22:52:53;;;;;;;12.5;8.6;;;;;;;10.89;44.12305;965.6078;;;;
2019/04/17 22:55:33;;;;;;;13.2;8.6;;;;;;;10.85;44.99512;965.598;;;;
2019/04/17 22:57:44;;;;;;;11.9;8.3;;;;;;;10.87;44.8252;965.6442;;;;
2019/04/17 23:00:15;;;;;;;10.4;7.9;;;;;;;10.73;45.32813;965.4984;;;;
2019/04/17 23:02:41;;;;;;;9.8;8.1;;;;;;;10.74;46.26172;965.6017;;;;
2019/04/17 23:05:14;;;;;;;10.2;7.9;;;;;;;10.69;46.06152;965.6147;;;;
2019/04/17 23:07:43;;;;;;;9.8;7.2;;;;;;;10.82;46.51172;965.5825;;;;
2019/04/17 23:10:14;;;;;;;10.6;7.5;;;;;;;10.81;47.13281;965.5227;;;;
2019/04/17 23:13:02;;;;;;;10.3;7.7;;;;;;;10.71;47.45703;965.4606;;;;
2019/04/17 23:15:27;;;;;;;10.9;7.6;;;;;;;10.68;47.60254;965.4589;;;;
2019/04/17 23:17:52;;;;;;;10;7.5;;;;;;;10.63;48.77051;965.4973;;;;
2019/04/17 23:20:22;;;;;;;9.7;7.1;;;;;;;10.62;48.48242;965.5722;;;;
2019/04/17 23:22:56;;;;;;;12.1;7.2;;;;;;;10.47;50.10059;965.5011;;;;
2019/04/17 23:25:27;;;;;;;11.5;7.2;;;;;;;10.45;50.53418;965.5508;;;;
2019/04/17 23:27:54;;;;;;;11.1;7;;;;;;;10.48;50.59473;965.5436;;;;
2019/04/17 23:30:20;;;;;;;9.1;6.9;;;;;;;10.53;50.82031;965.5834;;;;
2019/04/17 23:32:51;;;;;;;9.9;6.7;;;;;;;10.43;50.94629;965.5608;;;;
2019/04/17 23:35:11;;;;;;;9.1;7.1;;;;;;;10.31;51.85156;965.5181;;;;
2019/04/17 23:37:47;;;;;;;10.2;6.8;;;;;;;10.39;51.78125;965.5075;;;;
2019/04/17 23:40:14;;;;;;;8.3;6.7;;;;;;;10.27;52.30762;965.5644;;;;
2019/04/17 23:42:54;;;;;;;8.4;6.6;;;;;;;10.23;52.98047;965.5584;;;;
2019/04/17 23:45:25;;;;;;;8;6.1;;;;;;;10.33;52.91211;965.5994;;;;
2019/04/17 23:47:50;;;;;;;9.4;6.7;;;;;;;10.4;52.91016;965.6324;;;;
2019/04/17 23:50:19;;;;;;;8.3;6.2;;;;;;;10.33;53.15527;965.5856;;;;
2019/04/17 23:52:46;;;;;;;9.1;6;;;;;;;10.42;53.54395;965.6142;;;;
2019/04/17 23:55:19;;;;;;;7.2;6.4;;;;;;;10.37;53.88379;965.5524;;;;
2019/04/17 23:57:46;;;;;;;7.7;6.2;;;;;;;10.33;53.52148;965.5685;;;;
